sensor_id;sensor_type;location;lat;lon;timestamp;P1;durP1;ratioP1;P2;durP2;ratioP2
840;SDS011;406;48.566;13.450;2023-04-03T00:02:00;3.10;;;2.10;;
840;SDS011;406;48.566;13.450;2023-04-03T00:04:27;3.70;;;3.00;;
840;SDS011;406;48.566;13.450;2023-04-03T00:06:54;3.60;;;2.10;;
840;SDS011;406;48.566;13.450;2023-04-03T00:09:21;2.20;;;2.00;;
840;SDS011;406;48.566;13.450;2023-04-03T00:11:47;2.60;;;1.97;;
840;SDS011;406;48.566;13.450;2023-04-03T00:14:14;4.50;;;2.27;;
840;SDS011;406;48.566;13.450;2023-04-03T00:16:41;2.53;;;1.70;;
840;SDS011;406;48.566;13.450;2023-04-03T00:19:08;2.60;;;2.20;;
840;SDS011;406;48.566;13.450;2023-04-03T00:21:34;2.90;;;2.23;;
840;SDS011;406;48.566;13.450;2023-04-03T00:24:01;2.63;;;1.90;;
840;SDS011;406;48.566;13.450;2023-04-03T00:26:28;3.53;;;1.50;;
840;SDS011;406;48.566;13.450;2023-04-03T00:28:55;2.33;;;2.13;;
840;SDS011;406;48.566;13.450;2023-04-03T00:31:22;3.20;;;2.17;;
840;SDS011;406;48.566;13.450;2023-04-03T00:33:48;3.93;;;1.93;;
840;SDS011;406;48.566;13.450;2023-04-03T00:36:15;3.00;;;1.70;;
840;SDS011;406;48.566;13.450;2023-04-03T00:38:42;2.00;;;1.70;;
840;SDS011;406;48.566;13.450;2023-04-03T00:41:08;2.60;;;2.20;;
840;SDS011;406;48.566;13.450;2023-04-03T00:43:35;2.07;;;1.80;;
840;SDS011;406;48.566;13.450;2023-04-03T00:46:02;2.50;;;2.30;;
840;SDS011;406;48.566;13.450;2023-04-03T00:50:59;2.30;;;2.10;;
840;SDS011;406;48.566;13.450;2023-04-03T00:53:31;3.30;;;1.80;;
840;SDS011;406;48.566;13.450;2023-04-03T00:56:00;2.80;;;2.10;;
840;SDS011;406;48.566;13.450;2023-04-03T00:58:34;3.23;;;1.90;;
840;SDS011;406;48.566;13.450;2023-04-03T01:01:24;2.10;;;1.80;;
840;SDS011;406;48.566;13.450;2023-04-03T01:03:52;3.53;;;1.40;;
840;SDS011;406;48.566;13.450;2023-04-03T01:06:20;3.07;;;1.80;;
840;SDS011;406;48.566;13.450;2023-04-03T01:08:49;3.13;;;2.00;;
840;SDS011;406;48.566;13.450;2023-04-03T01:11:17;2.40;;;1.83;;
840;SDS011;406;48.566;13.450;2023-04-03T01:13:44;4.17;;;2.10;;
840;SDS011;406;48.566;13.450;2023-04-03T01:16:10;2.50;;;2.30;;
840;SDS011;406;48.566;13.450;2023-04-03T01:18:37;2.80;;;2.57;;
840;SDS011;406;48.566;13.450;2023-04-03T01:21:23;3.20;;;2.27;;
840;SDS011;406;48.566;13.450;2023-04-03T01:23:56;2.20;;;2.00;;
840;SDS011;406;48.566;13.450;2023-04-03T01:26:27;2.40;;;1.87;;
840;SDS011;406;48.566;13.450;2023-04-03T01:28:54;2.30;;;1.97;;
840;SDS011;406;48.566;13.450;2023-04-03T01:31:25;3.43;;;2.40;;
840;SDS011;406;48.566;13.450;2023-04-03T01:33:54;2.27;;;2.07;;
840;SDS011;406;48.566;13.450;2023-04-03T01:36:26;4.13;;;2.37;;
840;SDS011;406;48.566;13.450;2023-04-03T01:38:54;2.87;;;2.10;;
840;SDS011;406;48.566;13.450;2023-04-03T01:41:22;3.17;;;2.33;;
840;SDS011;406;48.566;13.450;2023-04-03T01:43:51;2.47;;;1.80;;
840;SDS011;406;48.566;13.450;2023-04-03T01:46:17;2.60;;;1.90;;
840;SDS011;406;48.566;13.450;2023-04-03T01:48:44;3.60;;;2.10;;
840;SDS011;406;48.566;13.450;2023-04-03T01:51:11;4.33;;;2.93;;
840;SDS011;406;48.566;13.450;2023-04-03T01:53:38;2.77;;;2.10;;
840;SDS011;406;48.566;13.450;2023-04-03T01:56:04;3.87;;;2.50;;
840;SDS011;406;48.566;13.450;2023-04-03T01:58:32;4.77;;;2.60;;
840;SDS011;406;48.566;13.450;2023-04-03T02:00:58;3.70;;;1.70;;
840;SDS011;406;48.566;13.450;2023-04-03T02:03:25;3.37;;;2.50;;
840;SDS011;406;48.566;13.450;2023-04-03T02:05:52;2.33;;;2.07;;
840;SDS011;406;48.566;13.450;2023-04-03T02:08:18;3.33;;;2.40;;
840;SDS011;406;48.566;13.450;2023-04-03T02:10:49;3.53;;;2.80;;
840;SDS011;406;48.566;13.450;2023-04-03T02:13:16;6.00;;;2.90;;
840;SDS011;406;48.566;13.450;2023-04-03T02:15:44;2.60;;;2.40;;
840;SDS011;406;48.566;13.450;2023-04-03T02:18:13;3.50;;;2.90;;
840;SDS011;406;48.566;13.450;2023-04-03T02:20:40;4.47;;;2.70;;
840;SDS011;406;48.566;13.450;2023-04-03T02:23:06;3.60;;;3.00;;
840;SDS011;406;48.566;13.450;2023-04-03T02:25:33;3.27;;;2.90;;
840;SDS011;406;48.566;13.450;2023-04-03T02:28:03;3.17;;;2.67;;
840;SDS011;406;48.566;13.450;2023-04-03T02:30:30;3.43;;;3.17;;
840;SDS011;406;48.566;13.450;2023-04-03T02:32:56;3.23;;;2.90;;
840;SDS011;406;48.566;13.450;2023-04-03T02:35:24;5.77;;;2.93;;
840;SDS011;406;48.566;13.450;2023-04-03T02:37:53;4.27;;;2.87;;
840;SDS011;406;48.566;13.450;2023-04-03T02:40:21;3.83;;;2.60;;
840;SDS011;406;48.566;13.450;2023-04-03T02:42:49;3.70;;;3.37;;
840;SDS011;406;48.566;13.450;2023-04-03T02:45:16;4.63;;;2.80;;
840;SDS011;406;48.566;13.450;2023-04-03T02:47:43;3.03;;;2.60;;
840;SDS011;406;48.566;13.450;2023-04-03T02:50:09;3.80;;;3.10;;
840;SDS011;406;48.566;13.450;2023-04-03T02:52:36;3.40;;;2.97;;
840;SDS011;406;48.566;13.450;2023-04-03T02:55:02;4.80;;;2.77;;
840;SDS011;406;48.566;13.450;2023-04-03T02:57:29;6.07;;;3.07;;
840;SDS011;406;48.566;13.450;2023-04-03T02:59:56;3.73;;;2.73;;
840;SDS011;406;48.566;13.450;2023-04-03T03:02:23;3.60;;;2.70;;
840;SDS011;406;48.566;13.450;2023-04-03T03:04:50;3.70;;;3.10;;
840;SDS011;406;48.566;13.450;2023-04-03T03:07:16;4.20;;;3.23;;
840;SDS011;406;48.566;13.450;2023-04-03T03:09:43;3.23;;;2.93;;
840;SDS011;406;48.566;13.450;2023-04-03T03:12:09;3.20;;;2.90;;
840;SDS011;406;48.566;13.450;2023-04-03T03:14:36;3.37;;;3.07;;
840;SDS011;406;48.566;13.450;2023-04-03T03:17:02;3.03;;;2.73;;
840;SDS011;406;48.566;13.450;2023-04-03T03:19:29;5.63;;;3.30;;
840;SDS011;406;48.566;13.450;2023-04-03T03:21:56;3.07;;;2.77;;
840;SDS011;406;48.566;13.450;2023-04-03T03:24:23;4.10;;;3.70;;
840;SDS011;406;48.566;13.450;2023-04-03T03:26:49;3.77;;;2.73;;
840;SDS011;406;48.566;13.450;2023-04-03T03:29:16;2.90;;;2.70;;
840;SDS011;406;48.566;13.450;2023-04-03T03:31:43;4.13;;;3.13;;
840;SDS011;406;48.566;13.450;2023-04-03T03:34:09;3.87;;;3.00;;
840;SDS011;406;48.566;13.450;2023-04-03T03:36:37;4.00;;;3.17;;
840;SDS011;406;48.566;13.450;2023-04-03T03:39:04;3.80;;;3.17;;
840;SDS011;406;48.566;13.450;2023-04-03T03:41:30;5.07;;;3.03;;
840;SDS011;406;48.566;13.450;2023-04-03T03:43:57;6.30;;;3.77;;
840;SDS011;406;48.566;13.450;2023-04-03T03:46:26;4.83;;;4.40;;
840;SDS011;406;48.566;13.450;2023-04-03T03:48:52;3.37;;;2.90;;
840;SDS011;406;48.566;13.450;2023-04-03T03:51:19;3.60;;;2.57;;
840;SDS011;406;48.566;13.450;2023-04-03T03:53:46;5.03;;;2.93;;
840;SDS011;406;48.566;13.450;2023-04-03T03:56:15;4.50;;;3.50;;
840;SDS011;406;48.566;13.450;2023-04-03T03:58:44;4.60;;;3.60;;
840;SDS011;406;48.566;13.450;2023-04-03T04:01:11;5.50;;;3.17;;
840;SDS011;406;48.566;13.450;2023-04-03T04:03:43;5.27;;;3.10;;
840;SDS011;406;48.566;13.450;2023-04-03T04:06:12;3.50;;;3.23;;
840;SDS011;406;48.566;13.450;2023-04-03T04:08:39;5.43;;;3.40;;
840;SDS011;406;48.566;13.450;2023-04-03T04:11:07;4.00;;;3.17;;
840;SDS011;406;48.566;13.450;2023-04-03T04:13:35;4.40;;;3.13;;
840;SDS011;406;48.566;13.450;2023-04-03T04:16:03;4.07;;;3.23;;
840;SDS011;406;48.566;13.450;2023-04-03T04:18:31;4.60;;;3.37;;
840;SDS011;406;48.566;13.450;2023-04-03T04:20:58;4.50;;;3.13;;
840;SDS011;406;48.566;13.450;2023-04-03T04:23:25;3.90;;;3.50;;
840;SDS011;406;48.566;13.450;2023-04-03T04:25:52;3.10;;;2.60;;
840;SDS011;406;48.566;13.450;2023-04-03T04:28:19;4.40;;;3.40;;
840;SDS011;406;48.566;13.450;2023-04-03T04:30:48;3.77;;;3.13;;
840;SDS011;406;48.566;13.450;2023-04-03T04:33:17;3.40;;;3.10;;
840;SDS011;406;48.566;13.450;2023-04-03T04:35:44;9.03;;;3.30;;
840;SDS011;406;48.566;13.450;2023-04-03T04:38:11;4.53;;;3.30;;
840;SDS011;406;48.566;13.450;2023-04-03T04:40:37;9.00;;;4.37;;
840;SDS011;406;48.566;13.450;2023-04-03T04:43:04;5.70;;;3.47;;
840;SDS011;406;48.566;13.450;2023-04-03T04:45:31;4.20;;;2.70;;
840;SDS011;406;48.566;13.450;2023-04-03T04:47:58;5.13;;;3.73;;
840;SDS011;406;48.566;13.450;2023-04-03T04:50:25;4.23;;;3.80;;
840;SDS011;406;48.566;13.450;2023-04-03T04:52:53;3.07;;;2.80;;
840;SDS011;406;48.566;13.450;2023-04-03T04:55:20;3.60;;;2.93;;
840;SDS011;406;48.566;13.450;2023-04-03T04:57:47;4.57;;;3.43;;
840;SDS011;406;48.566;13.450;2023-04-03T05:00:15;3.77;;;3.47;;
840;SDS011;406;48.566;13.450;2023-04-03T05:02:42;4.60;;;3.30;;
840;SDS011;406;48.566;13.450;2023-04-03T05:05:09;7.20;;;3.50;;
840;SDS011;406;48.566;13.450;2023-04-03T05:07:37;4.97;;;3.60;;
840;SDS011;406;48.566;13.450;2023-04-03T05:10:04;4.10;;;3.00;;
840;SDS011;406;48.566;13.450;2023-04-03T05:12:31;7.63;;;3.53;;
840;SDS011;406;48.566;13.450;2023-04-03T05:15:00;3.63;;;3.33;;
840;SDS011;406;48.566;13.450;2023-04-03T05:17:29;3.93;;;3.60;;
840;SDS011;406;48.566;13.450;2023-04-03T05:19:56;6.63;;;3.50;;
840;SDS011;406;48.566;13.450;2023-04-03T05:22:25;3.63;;;2.63;;
840;SDS011;406;48.566;13.450;2023-04-03T05:24:55;4.23;;;3.63;;
840;SDS011;406;48.566;13.450;2023-04-03T05:27:22;4.83;;;4.00;;
840;SDS011;406;48.566;13.450;2023-04-03T05:29:52;5.57;;;4.17;;
840;SDS011;406;48.566;13.450;2023-04-03T05:32:21;5.10;;;4.20;;
840;SDS011;406;48.566;13.450;2023-04-03T05:34:56;4.03;;;3.43;;
840;SDS011;406;48.566;13.450;2023-04-03T05:37:25;4.37;;;3.90;;
840;SDS011;406;48.566;13.450;2023-04-03T05:39:52;4.30;;;3.40;;
840;SDS011;406;48.566;13.450;2023-04-03T05:42:21;4.50;;;3.77;;
840;SDS011;406;48.566;13.450;2023-04-03T05:44:48;5.70;;;4.40;;
840;SDS011;406;48.566;13.450;2023-04-03T05:47:16;4.20;;;3.80;;
840;SDS011;406;48.566;13.450;2023-04-03T05:49:43;6.70;;;3.70;;
840;SDS011;406;48.566;13.450;2023-04-03T05:52:28;5.67;;;3.90;;
840;SDS011;406;48.566;13.450;2023-04-03T05:54:57;6.90;;;4.63;;
840;SDS011;406;48.566;13.450;2023-04-03T05:57:26;6.30;;;5.13;;
840;SDS011;406;48.566;13.450;2023-04-03T05:59:53;6.77;;;4.87;;
840;SDS011;406;48.566;13.450;2023-04-03T06:02:21;4.80;;;3.80;;
840;SDS011;406;48.566;13.450;2023-04-03T06:04:49;5.57;;;4.10;;
840;SDS011;406;48.566;13.450;2023-04-03T06:07:19;5.10;;;3.93;;
840;SDS011;406;48.566;13.450;2023-04-03T06:09:48;4.40;;;4.03;;
840;SDS011;406;48.566;13.450;2023-04-03T06:12:16;5.10;;;3.90;;
840;SDS011;406;48.566;13.450;2023-04-03T06:14:42;4.63;;;3.90;;
840;SDS011;406;48.566;13.450;2023-04-03T06:17:09;6.40;;;4.20;;
840;SDS011;406;48.566;13.450;2023-04-03T06:19:36;5.80;;;5.00;;
840;SDS011;406;48.566;13.450;2023-04-03T06:22:03;4.40;;;3.90;;
840;SDS011;406;48.566;13.450;2023-04-03T06:24:29;8.03;;;5.90;;
840;SDS011;406;48.566;13.450;2023-04-03T06:26:57;3.87;;;3.50;;
840;SDS011;406;48.566;13.450;2023-04-03T06:29:23;5.00;;;4.13;;
840;SDS011;406;48.566;13.450;2023-04-03T06:31:51;6.90;;;5.10;;
840;SDS011;406;48.566;13.450;2023-04-03T06:34:18;5.33;;;4.20;;
840;SDS011;406;48.566;13.450;2023-04-03T06:36:44;4.87;;;3.73;;
840;SDS011;406;48.566;13.450;2023-04-03T06:39:13;4.30;;;3.50;;
840;SDS011;406;48.566;13.450;2023-04-03T06:41:47;4.73;;;3.87;;
840;SDS011;406;48.566;13.450;2023-04-03T06:44:14;7.73;;;3.87;;
840;SDS011;406;48.566;13.450;2023-04-03T06:46:42;7.27;;;3.73;;
840;SDS011;406;48.566;13.450;2023-04-03T06:49:09;3.77;;;3.47;;
840;SDS011;406;48.566;13.450;2023-04-03T06:51:36;5.97;;;4.17;;
840;SDS011;406;48.566;13.450;2023-04-03T06:54:03;4.20;;;3.30;;
840;SDS011;406;48.566;13.450;2023-04-03T06:56:30;4.03;;;3.13;;
840;SDS011;406;48.566;13.450;2023-04-03T06:58:57;3.50;;;3.10;;
840;SDS011;406;48.566;13.450;2023-04-03T07:01:25;3.50;;;3.20;;
840;SDS011;406;48.566;13.450;2023-04-03T07:03:54;3.93;;;3.53;;
840;SDS011;406;48.566;13.450;2023-04-03T07:06:21;4.43;;;3.20;;
840;SDS011;406;48.566;13.450;2023-04-03T07:08:48;4.23;;;3.70;;
840;SDS011;406;48.566;13.450;2023-04-03T07:11:15;4.40;;;3.17;;
840;SDS011;406;48.566;13.450;2023-04-03T07:13:42;3.83;;;3.30;;
840;SDS011;406;48.566;13.450;2023-04-03T07:16:09;6.40;;;3.80;;
840;SDS011;406;48.566;13.450;2023-04-03T07:18:35;3.30;;;3.00;;
840;SDS011;406;48.566;13.450;2023-04-03T07:21:02;5.57;;;4.00;;
840;SDS011;406;48.566;13.450;2023-04-03T07:23:29;4.60;;;3.20;;
840;SDS011;406;48.566;13.450;2023-04-03T07:25:56;5.30;;;3.67;;
840;SDS011;406;48.566;13.450;2023-04-03T07:28:22;6.17;;;3.47;;
840;SDS011;406;48.566;13.450;2023-04-03T07:30:50;3.57;;;3.27;;
840;SDS011;406;48.566;13.450;2023-04-03T07:33:19;7.50;;;4.10;;
840;SDS011;406;48.566;13.450;2023-04-03T07:35:48;7.00;;;3.67;;
840;SDS011;406;48.566;13.450;2023-04-03T07:38:14;8.20;;;3.53;;
840;SDS011;406;48.566;13.450;2023-04-03T07:40:46;7.37;;;3.73;;
840;SDS011;406;48.566;13.450;2023-04-03T07:43:17;5.00;;;3.03;;
840;SDS011;406;48.566;13.450;2023-04-03T07:45:44;6.43;;;4.10;;
840;SDS011;406;48.566;13.450;2023-04-03T07:48:11;4.40;;;3.00;;
840;SDS011;406;48.566;13.450;2023-04-03T07:50:41;6.40;;;3.00;;
840;SDS011;406;48.566;13.450;2023-04-03T07:53:08;4.60;;;3.27;;
840;SDS011;406;48.566;13.450;2023-04-03T07:55:35;3.43;;;2.97;;
840;SDS011;406;48.566;13.450;2023-04-03T07:58:09;3.53;;;2.70;;
840;SDS011;406;48.566;13.450;2023-04-03T08:00:37;3.83;;;3.10;;
840;SDS011;406;48.566;13.450;2023-04-03T08:03:04;2.40;;;2.13;;
840;SDS011;406;48.566;13.450;2023-04-03T08:05:31;2.53;;;2.00;;
840;SDS011;406;48.566;13.450;2023-04-03T08:07:58;3.90;;;2.60;;
840;SDS011;406;48.566;13.450;2023-04-03T08:10:24;4.23;;;1.83;;
840;SDS011;406;48.566;13.450;2023-04-03T08:12:51;3.93;;;2.20;;
840;SDS011;406;48.566;13.450;2023-04-03T08:15:17;4.10;;;2.03;;
840;SDS011;406;48.566;13.450;2023-04-03T08:17:44;3.70;;;2.30;;
840;SDS011;406;48.566;13.450;2023-04-03T08:20:11;2.90;;;1.70;;
840;SDS011;406;48.566;13.450;2023-04-03T08:22:38;2.87;;;2.30;;
840;SDS011;406;48.566;13.450;2023-04-03T08:25:05;4.33;;;1.60;;
840;SDS011;406;48.566;13.450;2023-04-03T08:27:32;2.57;;;1.47;;
840;SDS011;406;48.566;13.450;2023-04-03T08:30:01;2.33;;;1.50;;
840;SDS011;406;48.566;13.450;2023-04-03T08:32:28;3.37;;;1.30;;
840;SDS011;406;48.566;13.450;2023-04-03T08:34:55;6.70;;;0.93;;
840;SDS011;406;48.566;13.450;2023-04-03T08:37:22;3.57;;;0.93;;
840;SDS011;406;48.566;13.450;2023-04-03T08:39:48;4.23;;;1.83;;
840;SDS011;406;48.566;13.450;2023-04-03T08:42:30;2.40;;;1.27;;
840;SDS011;406;48.566;13.450;2023-04-03T08:45:15;2.07;;;1.00;;
840;SDS011;406;48.566;13.450;2023-04-03T08:47:52;2.03;;;1.30;;
840;SDS011;406;48.566;13.450;2023-04-03T08:50:43;3.27;;;1.97;;
840;SDS011;406;48.566;13.450;2023-04-03T08:53:15;1.97;;;1.10;;
840;SDS011;406;48.566;13.450;2023-04-03T08:55:46;3.20;;;1.47;;
840;SDS011;406;48.566;13.450;2023-04-03T09:03:20;1.40;;;1.13;;
840;SDS011;406;48.566;13.450;2023-04-03T09:05:49;1.90;;;1.27;;
840;SDS011;406;48.566;13.450;2023-04-03T09:11:24;1.10;;;0.80;;
840;SDS011;406;48.566;13.450;2023-04-03T09:14:02;1.83;;;1.20;;
840;SDS011;406;48.566;13.450;2023-04-03T09:16:39;1.73;;;1.30;;
840;SDS011;406;48.566;13.450;2023-04-03T09:19:21;2.23;;;1.60;;
840;SDS011;406;48.566;13.450;2023-04-03T09:22:03;1.83;;;1.10;;
840;SDS011;406;48.566;13.450;2023-04-03T09:24:48;1.57;;;0.80;;
840;SDS011;406;48.566;13.450;2023-04-03T09:27:18;3.90;;;1.40;;
840;SDS011;406;48.566;13.450;2023-04-03T09:29:45;2.10;;;1.30;;
840;SDS011;406;48.566;13.450;2023-04-03T09:34:51;6.73;;;1.40;;
840;SDS011;406;48.566;13.450;2023-04-03T09:37:36;2.50;;;1.23;;
840;SDS011;406;48.566;13.450;2023-04-03T09:40:12;3.63;;;1.53;;
840;SDS011;406;48.566;13.450;2023-04-03T09:42:56;2.03;;;0.87;;
840;SDS011;406;48.566;13.450;2023-04-03T09:45:42;1.50;;;0.90;;
840;SDS011;406;48.566;13.450;2023-04-03T09:55:58;2.43;;;1.13;;
840;SDS011;406;48.566;13.450;2023-04-03T09:58:27;2.30;;;1.40;;
840;SDS011;406;48.566;13.450;2023-04-03T10:04:05;2.90;;;1.17;;
840;SDS011;406;48.566;13.450;2023-04-03T10:06:34;2.20;;;1.73;;
840;SDS011;406;48.566;13.450;2023-04-03T10:09:03;1.90;;;1.10;;
840;SDS011;406;48.566;13.450;2023-04-03T10:11:32;3.07;;;1.00;;
840;SDS011;406;48.566;13.450;2023-04-03T10:13:59;2.03;;;1.40;;
840;SDS011;406;48.566;13.450;2023-04-03T10:16:41;2.80;;;1.10;;
840;SDS011;406;48.566;13.450;2023-04-03T10:19:20;1.67;;;0.97;;
840;SDS011;406;48.566;13.450;2023-04-03T10:21:51;3.80;;;1.10;;
840;SDS011;406;48.566;13.450;2023-04-03T10:27:36;1.60;;;1.10;;
840;SDS011;406;48.566;13.450;2023-04-03T10:30:19;2.50;;;1.43;;
840;SDS011;406;48.566;13.450;2023-04-03T10:36:02;1.53;;;1.20;;
840;SDS011;406;48.566;13.450;2023-04-03T10:50:00;2.33;;;1.10;;
840;SDS011;406;48.566;13.450;2023-04-03T10:52:41;1.33;;;1.00;;
840;SDS011;406;48.566;13.450;2023-04-03T10:55:24;3.07;;;1.10;;
840;SDS011;406;48.566;13.450;2023-04-03T10:58:00;1.70;;;1.10;;
840;SDS011;406;48.566;13.450;2023-04-03T11:03:13;1.20;;;0.90;;
840;SDS011;406;48.566;13.450;2023-04-03T11:05:43;2.40;;;1.57;;
840;SDS011;406;48.566;13.450;2023-04-03T11:11:34;2.13;;;1.50;;
840;SDS011;406;48.566;13.450;2023-04-03T11:14:03;2.50;;;1.30;;
840;SDS011;406;48.566;13.450;2023-04-03T11:16:33;2.90;;;1.77;;
840;SDS011;406;48.566;13.450;2023-04-03T11:19:19;2.00;;;1.20;;
840;SDS011;406;48.566;13.450;2023-04-03T11:24:31;1.37;;;1.23;;
840;SDS011;406;48.566;13.450;2023-04-03T11:26:59;1.60;;;1.40;;
840;SDS011;406;48.566;13.450;2023-04-03T11:29:29;1.57;;;1.10;;
840;SDS011;406;48.566;13.450;2023-04-03T11:34:47;2.77;;;1.10;;
840;SDS011;406;48.566;13.450;2023-04-03T11:37:28;2.20;;;1.40;;
840;SDS011;406;48.566;13.450;2023-04-03T11:39:58;2.00;;;1.40;;
840;SDS011;406;48.566;13.450;2023-04-03T11:42:37;2.10;;;1.70;;
840;SDS011;406;48.566;13.450;2023-04-03T11:48:00;2.63;;;1.40;;
840;SDS011;406;48.566;13.450;2023-04-03T11:50:50;3.43;;;1.20;;
840;SDS011;406;48.566;13.450;2023-04-03T11:53:25;2.70;;;1.80;;
840;SDS011;406;48.566;13.450;2023-04-03T12:01:01;2.80;;;1.43;;
840;SDS011;406;48.566;13.450;2023-04-03T12:16:03;3.40;;;1.87;;
840;SDS011;406;48.566;13.450;2023-04-03T12:29:34;2.00;;;1.80;;
840;SDS011;406;48.566;13.450;2023-04-03T12:46:53;1.87;;;1.40;;
840;SDS011;406;48.566;13.450;2023-04-03T12:51:46;4.97;;;2.20;;
840;SDS011;406;48.566;13.450;2023-04-03T12:57:08;4.70;;;2.30;;
840;SDS011;406;48.566;13.450;2023-04-03T12:59:41;4.27;;;2.00;;
840;SDS011;406;48.566;13.450;2023-04-03T13:05:13;4.23;;;2.10;;
840;SDS011;406;48.566;13.450;2023-04-03T13:07:43;2.33;;;1.60;;
840;SDS011;406;48.566;13.450;2023-04-03T13:10:14;1.63;;;1.50;;
840;SDS011;406;48.566;13.450;2023-04-03T13:12:46;2.10;;;1.90;;
840;SDS011;406;48.566;13.450;2023-04-03T13:17:57;2.10;;;1.53;;
840;SDS011;406;48.566;13.450;2023-04-03T13:20:28;2.97;;;1.87;;
840;SDS011;406;48.566;13.450;2023-04-03T13:22:57;2.57;;;2.00;;
840;SDS011;406;48.566;13.450;2023-04-03T13:25:25;4.00;;;1.77;;
840;SDS011;406;48.566;13.450;2023-04-03T13:27:55;2.50;;;1.47;;
840;SDS011;406;48.566;13.450;2023-04-03T13:30:38;2.60;;;2.40;;
840;SDS011;406;48.566;13.450;2023-04-03T13:33:06;2.40;;;1.70;;
840;SDS011;406;48.566;13.450;2023-04-03T13:35:45;3.30;;;2.30;;
840;SDS011;406;48.566;13.450;2023-04-03T13:40:49;3.43;;;1.90;;
840;SDS011;406;48.566;13.450;2023-04-03T13:43:24;3.10;;;2.37;;
840;SDS011;406;48.566;13.450;2023-04-03T13:48:48;3.93;;;2.33;;
840;SDS011;406;48.566;13.450;2023-04-03T13:51:18;2.90;;;1.80;;
840;SDS011;406;48.566;13.450;2023-04-03T13:53:49;4.80;;;2.53;;
840;SDS011;406;48.566;13.450;2023-04-03T13:56:26;4.67;;;2.53;;
840;SDS011;406;48.566;13.450;2023-04-03T14:04:21;3.63;;;3.33;;
840;SDS011;406;48.566;13.450;2023-04-03T14:06:52;3.53;;;2.10;;
840;SDS011;406;48.566;13.450;2023-04-03T14:09:20;5.97;;;2.67;;
840;SDS011;406;48.566;13.450;2023-04-03T14:11:48;2.93;;;2.40;;
840;SDS011;406;48.566;13.450;2023-04-03T14:14:18;3.33;;;2.20;;
840;SDS011;406;48.566;13.450;2023-04-03T14:16:48;4.77;;;2.37;;
840;SDS011;406;48.566;13.450;2023-04-03T14:19:52;4.10;;;1.93;;
840;SDS011;406;48.566;13.450;2023-04-03T14:22:22;1.90;;;1.70;;
840;SDS011;406;48.566;13.450;2023-04-03T14:24:54;2.90;;;1.67;;
840;SDS011;406;48.566;13.450;2023-04-03T14:27:22;2.90;;;2.40;;
840;SDS011;406;48.566;13.450;2023-04-03T14:29:51;2.93;;;2.03;;
840;SDS011;406;48.566;13.450;2023-04-03T14:32:19;3.57;;;2.60;;
840;SDS011;406;48.566;13.450;2023-04-03T14:34:48;2.57;;;2.37;;
840;SDS011;406;48.566;13.450;2023-04-03T14:37:16;2.47;;;2.00;;
840;SDS011;406;48.566;13.450;2023-04-03T14:39:44;3.30;;;2.30;;
840;SDS011;406;48.566;13.450;2023-04-03T14:42:13;1.77;;;1.67;;
840;SDS011;406;48.566;13.450;2023-04-03T14:44:45;2.30;;;2.07;;
840;SDS011;406;48.566;13.450;2023-04-03T14:47:12;3.10;;;2.00;;
840;SDS011;406;48.566;13.450;2023-04-03T14:49:56;1.97;;;1.53;;
840;SDS011;406;48.566;13.450;2023-04-03T14:52:24;3.53;;;2.00;;
840;SDS011;406;48.566;13.450;2023-04-03T14:54:53;8.27;;;2.47;;
840;SDS011;406;48.566;13.450;2023-04-03T14:57:20;2.80;;;1.80;;
840;SDS011;406;48.566;13.450;2023-04-03T14:59:48;2.53;;;2.10;;
840;SDS011;406;48.566;13.450;2023-04-03T15:02:26;3.90;;;2.47;;
840;SDS011;406;48.566;13.450;2023-04-03T15:04:57;2.60;;;2.40;;
840;SDS011;406;48.566;13.450;2023-04-03T15:07:25;4.07;;;2.37;;
840;SDS011;406;48.566;13.450;2023-04-03T15:09:53;4.17;;;1.93;;
840;SDS011;406;48.566;13.450;2023-04-03T15:12:22;2.50;;;1.77;;
840;SDS011;406;48.566;13.450;2023-04-03T15:14:50;3.20;;;1.90;;
840;SDS011;406;48.566;13.450;2023-04-03T15:17:26;3.00;;;2.63;;
840;SDS011;406;48.566;13.450;2023-04-03T15:19:52;3.67;;;2.43;;
840;SDS011;406;48.566;13.450;2023-04-03T15:22:19;5.40;;;2.57;;
840;SDS011;406;48.566;13.450;2023-04-03T15:24:46;4.93;;;2.70;;
840;SDS011;406;48.566;13.450;2023-04-03T15:27:12;4.07;;;2.47;;
840;SDS011;406;48.566;13.450;2023-04-03T15:29:40;2.60;;;2.17;;
840;SDS011;406;48.566;13.450;2023-04-03T15:32:07;3.70;;;2.10;;
840;SDS011;406;48.566;13.450;2023-04-03T15:34:35;2.27;;;2.07;;
840;SDS011;406;48.566;13.450;2023-04-03T15:37:02;3.53;;;1.93;;
840;SDS011;406;48.566;13.450;2023-04-03T15:39:29;4.73;;;2.90;;
840;SDS011;406;48.566;13.450;2023-04-03T15:41:55;2.83;;;2.37;;
840;SDS011;406;48.566;13.450;2023-04-03T15:44:22;2.73;;;2.37;;
840;SDS011;406;48.566;13.450;2023-04-03T15:46:49;4.13;;;2.70;;
840;SDS011;406;48.566;13.450;2023-04-03T15:49:17;3.00;;;2.50;;
840;SDS011;406;48.566;13.450;2023-04-03T15:51:45;2.83;;;2.17;;
840;SDS011;406;48.566;13.450;2023-04-03T15:54:11;4.43;;;3.07;;
840;SDS011;406;48.566;13.450;2023-04-03T15:56:38;2.87;;;2.57;;
840;SDS011;406;48.566;13.450;2023-04-03T15:59:05;2.57;;;2.37;;
840;SDS011;406;48.566;13.450;2023-04-03T16:01:31;3.57;;;2.30;;
840;SDS011;406;48.566;13.450;2023-04-03T16:03:58;6.00;;;2.80;;
840;SDS011;406;48.566;13.450;2023-04-03T16:06:25;4.00;;;2.97;;
840;SDS011;406;48.566;13.450;2023-04-03T16:08:51;3.93;;;2.90;;
840;SDS011;406;48.566;13.450;2023-04-03T16:11:23;2.93;;;2.13;;
840;SDS011;406;48.566;13.450;2023-04-03T16:13:51;4.63;;;2.63;;
840;SDS011;406;48.566;13.450;2023-04-03T16:16:17;2.13;;;1.93;;
840;SDS011;406;48.566;13.450;2023-04-03T16:18:44;2.70;;;2.50;;
840;SDS011;406;48.566;13.450;2023-04-03T16:21:13;2.77;;;2.40;;
840;SDS011;406;48.566;13.450;2023-04-03T16:23:40;3.50;;;2.60;;
840;SDS011;406;48.566;13.450;2023-04-03T16:26:08;3.30;;;2.17;;
840;SDS011;406;48.566;13.450;2023-04-03T16:28:34;3.10;;;2.03;;
840;SDS011;406;48.566;13.450;2023-04-03T16:31:01;2.40;;;2.20;;
840;SDS011;406;48.566;13.450;2023-04-03T16:33:28;3.10;;;2.43;;
840;SDS011;406;48.566;13.450;2023-04-03T16:35:56;3.77;;;2.37;;
840;SDS011;406;48.566;13.450;2023-04-03T16:38:22;3.30;;;1.90;;
840;SDS011;406;48.566;13.450;2023-04-03T16:40:49;3.37;;;2.30;;
840;SDS011;406;48.566;13.450;2023-04-03T16:43:15;4.17;;;2.07;;
840;SDS011;406;48.566;13.450;2023-04-03T16:45:42;4.10;;;2.43;;
840;SDS011;406;48.566;13.450;2023-04-03T16:48:09;2.40;;;2.00;;
840;SDS011;406;48.566;13.450;2023-04-03T16:50:36;4.63;;;2.07;;
840;SDS011;406;48.566;13.450;2023-04-03T16:53:03;3.60;;;2.30;;
840;SDS011;406;48.566;13.450;2023-04-03T16:55:29;5.10;;;2.13;;
840;SDS011;406;48.566;13.450;2023-04-03T16:57:56;4.47;;;3.20;;
840;SDS011;406;48.566;13.450;2023-04-03T17:00:22;3.03;;;2.53;;
840;SDS011;406;48.566;13.450;2023-04-03T17:02:49;3.00;;;2.40;;
840;SDS011;406;48.566;13.450;2023-04-03T17:05:16;3.60;;;2.00;;
840;SDS011;406;48.566;13.450;2023-04-03T17:07:43;4.00;;;2.07;;
840;SDS011;406;48.566;13.450;2023-04-03T17:10:10;4.03;;;2.10;;
840;SDS011;406;48.566;13.450;2023-04-03T17:12:37;2.70;;;2.30;;
840;SDS011;406;48.566;13.450;2023-04-03T17:15:05;3.47;;;2.00;;
840;SDS011;406;48.566;13.450;2023-04-03T17:17:32;3.27;;;2.20;;
840;SDS011;406;48.566;13.450;2023-04-03T17:19:59;4.43;;;2.23;;
840;SDS011;406;48.566;13.450;2023-04-03T17:22:27;3.47;;;2.07;;
840;SDS011;406;48.566;13.450;2023-04-03T17:24:54;4.17;;;2.50;;
840;SDS011;406;48.566;13.450;2023-04-03T17:27:21;3.17;;;2.10;;
840;SDS011;406;48.566;13.450;2023-04-03T17:29:48;2.57;;;2.10;;
840;SDS011;406;48.566;13.450;2023-04-03T17:32:15;3.50;;;1.90;;
840;SDS011;406;48.566;13.450;2023-04-03T17:34:42;3.30;;;2.20;;
840;SDS011;406;48.566;13.450;2023-04-03T17:37:09;4.57;;;2.30;;
840;SDS011;406;48.566;13.450;2023-04-03T17:39:35;4.47;;;2.03;;
840;SDS011;406;48.566;13.450;2023-04-03T17:42:02;4.33;;;2.20;;
840;SDS011;406;48.566;13.450;2023-04-03T17:44:28;4.30;;;2.90;;